Time;durP1;ratioP1;P1;durP2;ratioP2;P2;SDS_P1;SDS_P2;PMS_P1;PMS_P2;Temp;Humidity;BMP_temperature;BMP_pressure;BME280_temperature;BME280_humidity;BME280_pressure;Samples;Min_cycle;Max_cycle;Signal;HPM_P1;HPM_P2
2021/12/12 00:00:20;;;;;;;1.23;0.80;;;;;;;;;;5053516;28;21039;-81
2021/12/12 00:05:16;;;;;;;4.23;0.93;;;;;;;;;;5072999;28;20407;-80
2021/12/12 00:07:43;;;;;;;3.93;0.80;;;;;;;;;;5072705;28;20425;-81
2021/12/12 00:10:17;;;;;;;1.97;0.97;;;;;;;;;;5072569;28;20467;-81
2021/12/12 00:12:45;;;;;;;1.10;0.70;;;;;;;;;;5055011;28;20830;-82
2021/12/12 00:15:12;;;;;;;1.40;0.80;;;;;;;;;;5054465;28;20929;-81
2021/12/12 00:17:39;;;;;;;1.17;0.67;;;;;;;;;;5054801;28;20445;-81
2021/12/12 00:20:06;;;;;;;1.17;0.70;;;;;;;;;;5073017;28;20454;-81
2021/12/12 00:22:32;;;;;;;1.40;0.90;;;;;;;;;;5073222;28;20422;-81
2021/12/12 00:24:59;;;;;;;1.63;0.93;;;;;;;;;;5054792;28;20778;-82
2021/12/12 00:27:25;;;;;;;1.30;0.87;;;;;;;;;;5072621;28;20433;-82
2021/12/12 00:29:51;;;;;;;21.13;1.30;;;;;;;;;;5056596;28;20407;-82
2021/12/12 00:32:18;;;;;;;2.83;0.80;;;;;;;;;;5077077;28;20411;-82
2021/12/12 00:34:49;;;;;;;1.43;0.80;;;;;;;;;;5059328;28;20473;-82
2021/12/12 00:37:16;;;;;;;1.40;0.90;;;;;;;;;;5059138;28;21124;-81
2021/12/12 00:39:47;;;;;;;1.30;0.80;;;;;;;;;;5058945;28;21048;-81
2021/12/12 00:42:15;;;;;;;1.20;0.80;;;;;;;;;;5076996;28;20402;-82
2021/12/12 00:44:44;;;;;;;1.20;0.73;;;;;;;;;;5076948;28;20399;-82
2021/12/12 00:47:10;;;;;;;1.33;0.80;;;;;;;;;;5076271;28;20799;-82
2021/12/12 00:49:39;;;;;;;1.33;0.80;;;;;;;;;;5058654;28;20932;-82
2021/12/12 00:52:06;;;;;;;4.30;0.80;;;;;;;;;;5058164;28;20410;-83
2021/12/12 00:54:32;;;;;;;2.03;0.83;;;;;;;;;;5056829;28;20461;-83
2021/12/12 00:56:59;;;;;;;1.40;0.90;;;;;;;;;;5056703;28;20430;-82
2021/12/12 00:59:26;;;;;;;1.20;0.80;;;;;;;;;;5056838;28;20462;-83
2021/12/12 01:01:52;;;;;;;1.30;0.80;;;;;;;;;;5057251;28;20829;-82
2021/12/12 01:04:21;;;;;;;1.40;0.70;;;;;;;;;;5075501;28;20755;-82
2021/12/12 01:06:47;;;;;;;1.50;1.00;;;;;;;;;;5057222;28;20446;-82
2021/12/12 01:09:16;;;;;;;1.87;0.80;;;;;;;;;;5075161;28;20419;-83
2021/12/12 01:11:44;;;;;;;2.33;0.90;;;;;;;;;;5056969;28;20410;-82
2021/12/12 01:14:13;;;;;;;1.50;0.90;;;;;;;;;;5057664;28;20988;-82
2021/12/12 01:16:41;;;;;;;1.20;0.80;;;;;;;;;;5075135;28;20418;-82
2021/12/12 01:19:11;;;;;;;1.60;0.83;;;;;;;;;;5076111;28;20464;-82
2021/12/12 01:21:39;;;;;;;1.93;0.90;;;;;;;;;;5076075;28;20434;-82
2021/12/12 01:24:09;;;;;;;1.33;0.80;;;;;;;;;;5060709;28;20485;-82
2021/12/12 01:26:36;;;;;;;3.80;0.93;;;;;;;;;;5061333;28;20749;-81
2021/12/12 01:29:02;;;;;;;1.33;0.77;;;;;;;;;;5079432;28;20403;-81
2021/12/12 01:31:31;;;;;;;1.23;0.70;;;;;;;;;;5060075;28;20415;-82
2021/12/12 01:34:09;;;;;;;1.10;0.80;;;;;;;;;;5060739;28;20525;-81
2021/12/12 01:36:48;;;;;;;1.27;0.80;;;;;;;;;;5078735;28;20430;-81
2021/12/12 01:39:15;;;;;;;1.10;0.70;;;;;;;;;;5060424;28;20460;-81
2021/12/12 01:41:46;;;;;;;1.57;1.03;;;;;;;;;;5077944;28;20754;-81
2021/12/12 01:44:39;;;;;;;1.30;0.70;;;;;;;;;;5060128;28;20920;-81
2021/12/12 01:47:14;;;;;;;1.13;0.73;;;;;;;;;;5029378;28;20439;-81
2021/12/12 01:49:44;;;;;;;1.07;0.60;;;;;;;;;;5060093;28;20427;-81
2021/12/12 01:52:12;;;;;;;1.33;0.70;;;;;;;;;;5060721;28;20415;-81
2021/12/12 01:54:45;;;;;;;1.47;0.90;;;;;;;;;;5077491;28;20762;-82
2021/12/12 01:57:13;;;;;;;1.10;0.80;;;;;;;;;;5058856;28;20434;-82
2021/12/12 01:59:41;;;;;;;1.60;1.07;;;;;;;;;;5077736;28;20453;-82
2021/12/12 02:02:10;;;;;;;2.33;0.70;;;;;;;;;;5079620;28;20403;-82
2021/12/12 02:04:40;;;;;;;1.77;0.90;;;;;;;;;;5078721;28;20406;-82
2021/12/12 02:07:07;;;;;;;1.50;0.80;;;;;;;;;;5079339;28;20513;-82
2021/12/12 02:09:33;;;;;;;2.20;0.90;;;;;;;;;;5079759;28;20740;-81
2021/12/12 02:12:01;;;;;;;1.00;0.70;;;;;;;;;;5079784;28;20402;-82
2021/12/12 02:14:31;;;;;;;1.53;0.80;;;;;;;;;;5061948;28;20489;-82
2021/12/12 02:17:00;;;;;;;1.13;0.73;;;;;;;;;;5079964;28;20434;-83
2021/12/12 02:19:38;;;;;;;1.80;0.90;;;;;;;;;;5061539;28;20493;-82
2021/12/12 02:22:31;;;;;;;1.33;0.83;;;;;;;;;;5062336;28;20922;-81
2021/12/12 02:35:57;;;;;;;4.37;0.90;;;;;;;;;;5085905;28;21027;-81
2021/12/12 02:38:25;;;;;;;1.20;0.60;;;;;;;;;;5067636;28;20505;-81
2021/12/12 02:40:53;;;;;;;1.40;0.83;;;;;;;;;;5067481;28;20515;-82
2021/12/12 02:43:21;;;;;;;1.20;0.80;;;;;;;;;;5068138;28;20499;-81
2021/12/12 02:45:48;;;;;;;1.10;0.70;;;;;;;;;;5087028;28;20474;-81
2021/12/12 02:48:19;;;;;;;1.50;0.70;;;;;;;;;;5079788;28;20403;-83
2021/12/12 02:50:47;;;;;;;1.00;0.60;;;;;;;;;;5073180;28;20411;-82
2021/12/12 02:53:17;;;;;;;2.70;0.80;;;;;;;;;;5053995;28;20422;-82
2021/12/12 02:55:45;;;;;;;1.20;0.70;;;;;;;;;;5055203;28;20422;-82
2021/12/12 02:58:13;;;;;;;1.30;0.80;;;;;;;;;;5061745;28;20411;-82
2021/12/12 03:00:44;;;;;;;1.40;1.10;;;;;;;;;;5066387;28;20902;-81
2021/12/12 03:03:10;;;;;;;1.07;0.70;;;;;;;;;;5067484;28;20431;-81
2021/12/12 03:05:38;;;;;;;1.10;0.70;;;;;;;;;;5081641;28;20429;-83
2021/12/12 03:08:04;;;;;;;1.73;0.70;;;;;;;;;;5082636;28;20429;-82
2021/12/12 03:10:36;;;;;;;1.93;0.73;;;;;;;;;;5083287;28;20410;-83
2021/12/12 03:13:03;;;;;;;1.30;0.70;;;;;;;;;;5067107;28;20403;-83
2021/12/12 03:15:30;;;;;;;1.07;0.73;;;;;;;;;;5067317;28;20411;-83
2021/12/12 03:17:58;;;;;;;1.77;0.93;;;;;;;;;;5067262;28;20414;-82
2021/12/12 03:20:31;;;;;;;1.10;0.63;;;;;;;;;;5084846;28;20478;-82
2021/12/12 03:23:03;;;;;;;1.07;0.60;;;;;;;;;;5078414;28;20517;-82
2021/12/12 03:25:31;;;;;;;1.37;0.80;;;;;;;;;;5059697;28;20469;-81
2021/12/12 03:27:57;;;;;;;0.97;0.63;;;;;;;;;;5059761;28;20402;-82
2021/12/12 03:30:23;;;;;;;1.13;0.60;;;;;;;;;;5076608;28;20506;-83
2021/12/12 03:32:49;;;;;;;1.00;0.70;;;;;;;;;;5077484;28;20406;-82
2021/12/12 03:35:15;;;;;;;1.30;0.70;;;;;;;;;;5059093;28;20417;-81
2021/12/12 03:37:42;;;;;;;0.97;0.60;;;;;;;;;;5077050;28;20517;-82
2021/12/12 03:40:14;;;;;;;1.10;0.70;;;;;;;;;;5058808;28;20454;-81
2021/12/12 03:42:41;;;;;;;2.00;0.93;;;;;;;;;;5059037;28;20407;-81
2021/12/12 03:45:08;;;;;;;1.00;0.60;;;;;;;;;;5058995;28;20415;-82
2021/12/12 03:47:38;;;;;;;1.30;0.80;;;;;;;;;;5076387;28;20447;-81
2021/12/12 03:50:07;;;;;;;1.10;0.80;;;;;;;;;;5076628;28;20493;-81
2021/12/12 03:52:33;;;;;;;1.33;0.70;;;;;;;;;;5059145;28;20407;-80
2021/12/12 03:55:01;;;;;;;1.40;0.80;;;;;;;;;;5077055;28;20414;-82
2021/12/12 03:57:28;;;;;;;1.07;0.77;;;;;;;;;;5058851;28;20485;-81
2021/12/12 03:59:54;;;;;;;1.50;0.80;;;;;;;;;;5076435;28;20469;-81
2021/12/12 04:02:20;;;;;;;1.20;0.73;;;;;;;;;;5058361;28;20411;-81
2021/12/12 04:04:47;;;;;;;1.67;1.00;;;;;;;;;;5082174;22;20685;-76
2021/12/12 04:07:16;;;;;;;1.20;0.90;;;;;;;;;;5074901;28;20405;-76
2021/12/12 04:09:42;;;;;;;1.77;0.90;;;;;;;;;;5074244;28;20434;-77
2021/12/12 04:12:09;;;;;;;1.50;0.90;;;;;;;;;;5074828;28;20409;-77
2021/12/12 04:14:36;;;;;;;1.30;0.80;;;;;;;;;;5070645;28;20424;-77
2021/12/12 04:17:04;;;;;;;2.70;0.77;;;;;;;;;;5054705;28;20411;-77
2021/12/12 04:19:31;;;;;;;1.10;0.80;;;;;;;;;;5054366;28;20468;-77
2021/12/12 04:21:57;;;;;;;1.43;0.70;;;;;;;;;;5036725;28;20974;-76
2021/12/12 04:24:31;;;;;;;1.10;0.70;;;;;;;;;;5054635;28;20403;-76
2021/12/12 04:26:57;;;;;;;1.37;0.60;;;;;;;;;;5054696;28;20395;-76
2021/12/12 04:29:32;;;;;;;1.30;0.70;;;;;;;;;;5054280;28;20411;-76
2021/12/12 04:31:59;;;;;;;1.10;0.70;;;;;;;;;;5054597;28;20407;-77
2021/12/12 04:34:27;;;;;;;1.27;0.80;;;;;;;;;;5054274;28;20419;-77
2021/12/12 04:36:54;;;;;;;1.80;1.00;;;;;;;;;;5055177;28;20407;-76
2021/12/12 04:39:25;;;;;;;1.77;0.90;;;;;;;;;;5054260;28;20525;-76
2021/12/12 04:41:51;;;;;;;1.40;0.90;;;;;;;;;;5054691;28;20428;-77
2021/12/12 04:44:25;;;;;;;1.10;0.70;;;;;;;;;;5036457;28;20458;-77
2021/12/12 04:49:56;;;;;;;1.10;0.73;;;;;;;;;;5054488;28;20453;-77
2021/12/12 04:52:41;;;;;;;1.00;0.70;;;;;;;;;;5054250;28;20464;-77
2021/12/12 04:55:10;;;;;;;1.40;0.73;;;;;;;;;;5054005;28;20451;-77
2021/12/12 04:57:59;;;;;;;1.30;0.83;;;;;;;;;;5053971;28;20400;-77
2021/12/12 05:00:30;;;;;;;1.57;0.90;;;;;;;;;;5045628;28;20459;-77
2021/12/12 05:03:02;;;;;;;1.37;0.70;;;;;;;;;;5054071;28;20396;-77
2021/12/12 05:05:33;;;;;;;1.20;0.73;;;;;;;;;;5053646;28;20954;-77
2021/12/12 05:08:04;;;;;;;1.17;0.70;;;;;;;;;;5036000;28;20412;-77
2021/12/12 05:10:31;;;;;;;1.40;0.80;;;;;;;;;;5053491;28;20930;-77
2021/12/12 05:13:21;;;;;;;1.57;0.93;;;;;;;;;;5053750;28;20494;-77
2021/12/12 05:15:49;;;;;;;1.00;0.60;;;;;;;;;;5052959;28;20416;-77
2021/12/12 05:18:19;;;;;;;1.10;0.80;;;;;;;;;;5053704;28;20408;-77
2021/12/12 05:20:47;;;;;;;1.13;0.67;;;;;;;;;;5053417;28;20454;-77
2021/12/12 05:23:14;;;;;;;1.30;0.70;;;;;;;;;;5053686;28;20400;-78
2021/12/12 05:25:44;;;;;;;2.60;0.60;;;;;;;;;;5053250;28;20427;-77
2021/12/12 05:28:11;;;;;;;1.00;0.60;;;;;;;;;;5053478;28;20400;-77
2021/12/12 05:30:37;;;;;;;1.03;0.60;;;;;;;;;;5053000;28;20486;-77
2021/12/12 05:33:05;;;;;;;2.30;0.80;;;;;;;;;;5053465;28;20407;-77
2021/12/12 05:35:33;;;;;;;1.20;0.70;;;;;;;;;;5053270;28;20423;-77
2021/12/12 05:38:00;;;;;;;1.20;0.60;;;;;;;;;;5053233;28;20466;-77
2021/12/12 05:40:28;;;;;;;1.07;0.80;;;;;;;;;;5052806;28;20470;-77
2021/12/12 05:42:58;;;;;;;1.20;0.70;;;;;;;;;;5053196;28;20407;-77
2021/12/12 05:45:25;;;;;;;1.50;0.83;;;;;;;;;;5053021;28;20426;-77
2021/12/12 05:47:51;;;;;;;1.57;0.70;;;;;;;;;;5053106;28;20466;-77
2021/12/12 05:50:18;;;;;;;1.30;0.67;;;;;;;;;;5052786;28;20412;-77
2021/12/12 05:52:45;;;;;;;1.30;0.70;;;;;;;;;;5052974;28;20416;-77
2021/12/12 05:55:11;;;;;;;1.30;0.80;;;;;;;;;;5052774;28;20840;-77
2021/12/12 05:57:37;;;;;;;1.00;0.50;;;;;;;;;;5052825;28;20431;-77
2021/12/12 06:00:08;;;;;;;1.43;0.80;;;;;;;;;;5034613;28;20586;-77
2021/12/12 06:02:35;;;;;;;1.37;0.77;;;;;;;;;;5052861;28;20410;-77
2021/12/12 06:05:01;;;;;;;1.20;0.70;;;;;;;;;;5052488;28;20794;-76
2021/12/12 06:07:28;;;;;;;1.63;0.80;;;;;;;;;;5052804;28;20404;-76
2021/12/12 06:09:55;;;;;;;2.27;1.03;;;;;;;;;;5034376;28;20502;-77
2021/12/12 06:12:21;;;;;;;1.70;0.93;;;;;;;;;;5052745;28;20745;-77
2021/12/12 06:14:48;;;;;;;1.30;0.80;;;;;;;;;;5052480;28;20561;-76
2021/12/12 06:17:16;;;;;;;1.10;0.70;;;;;;;;;;5052437;28;20415;-76
2021/12/12 06:19:43;;;;;;;1.60;0.90;;;;;;;;;;5034135;28;20983;-76
2021/12/12 06:22:10;;;;;;;1.77;0.90;;;;;;;;;;5052560;28;20494;-76
2021/12/12 06:24:37;;;;;;;1.00;0.60;;;;;;;;;;5052180;28;20424;-76
2021/12/12 06:27:08;;;;;;;1.47;1.10;;;;;;;;;;5051432;28;20415;-76
2021/12/12 06:29:34;;;;;;;1.60;0.97;;;;;;;;;;5051939;28;20791;-76
2021/12/12 06:32:00;;;;;;;1.63;0.93;;;;;;;;;;5052230;28;20447;-76
2021/12/12 06:34:26;;;;;;;1.27;0.87;;;;;;;;;;5052063;28;20898;-76
2021/12/12 06:36:52;;;;;;;1.43;1.00;;;;;;;;;;5034104;28;20412;-77
2021/12/12 06:39:19;;;;;;;1.60;1.00;;;;;;;;;;5051721;28;20946;-75
2021/12/12 06:41:46;;;;;;;1.33;0.97;;;;;;;;;;5052086;28;20411;-75
2021/12/12 06:44:13;;;;;;;1.40;0.90;;;;;;;;;;5051926;28;20406;-76
2021/12/12 06:46:40;;;;;;;1.60;1.00;;;;;;;;;;5052052;28;20460;-76
2021/12/12 06:49:07;;;;;;;1.57;1.00;;;;;;;;;;5051963;28;20399;-76
2021/12/12 06:51:34;;;;;;;1.53;1.10;;;;;;;;;;5050674;28;20403;-77
2021/12/12 06:54:01;;;;;;;1.10;0.80;;;;;;;;;;5050774;28;20440;-78
2021/12/12 06:56:27;;;;;;;1.37;0.90;;;;;;;;;;5050866;28;20489;-77
2021/12/12 06:58:57;;;;;;;1.30;0.80;;;;;;;;;;5050718;28;20425;-77
2021/12/12 07:01:25;;;;;;;1.70;1.00;;;;;;;;;;5050517;28;20415;-77
2021/12/12 07:03:51;;;;;;;1.03;0.70;;;;;;;;;;5050734;28;20457;-77
2021/12/12 07:06:18;;;;;;;2.00;1.30;;;;;;;;;;5051238;28;20815;-77
2021/12/12 07:08:44;;;;;;;1.30;0.90;;;;;;;;;;5051556;28;20408;-77
2021/12/12 07:11:10;;;;;;;1.30;0.80;;;;;;;;;;5051209;28;20412;-77
2021/12/12 07:13:36;;;;;;;1.47;0.83;;;;;;;;;;5051409;28;20426;-76
2021/12/12 07:16:04;;;;;;;1.23;0.80;;;;;;;;;;5051226;28;20436;-76
2021/12/12 07:18:31;;;;;;;1.77;0.83;;;;;;;;;;5051480;28;20966;-76
2021/12/12 07:20:59;;;;;;;1.47;1.00;;;;;;;;;;5048510;28;20550;-76
2021/12/12 07:23:26;;;;;;;1.63;1.00;;;;;;;;;;5050811;28;20392;-75
2021/12/12 07:25:52;;;;;;;8.30;1.27;;;;;;;;;;5050828;28;20416;-76
2021/12/12 07:28:19;;;;;;;1.50;0.90;;;;;;;;;;5051097;28;20406;-76
2021/12/12 07:30:45;;;;;;;1.93;0.97;;;;;;;;;;5050753;28;20486;-76
2021/12/12 07:33:12;;;;;;;1.87;1.30;;;;;;;;;;5051054;28;20887;-76
2021/12/12 07:35:39;;;;;;;1.27;0.80;;;;;;;;;;5050873;28;20430;-77
2021/12/12 07:38:07;;;;;;;1.30;0.87;;;;;;;;;;5050728;28;20407;-76
2021/12/12 07:40:33;;;;;;;1.77;1.00;;;;;;;;;;5050644;28;20494;-76
2021/12/12 07:42:59;;;;;;;1.50;0.90;;;;;;;;;;5050908;28;20759;-76
2021/12/12 07:45:25;;;;;;;3.50;1.00;;;;;;;;;;5050879;28;20419;-77
2021/12/12 07:47:52;;;;;;;2.03;0.80;;;;;;;;;;5050922;28;20403;-76
2021/12/12 07:50:19;;;;;;;1.37;0.93;;;;;;;;;;5032634;28;20415;-76
2021/12/12 07:52:46;;;;;;;1.60;0.83;;;;;;;;;;5050864;28;20407;-76
2021/12/12 07:55:12;;;;;;;1.30;0.80;;;;;;;;;;5050484;28;20427;-76
2021/12/12 07:57:38;;;;;;;2.73;1.20;;;;;;;;;;5050702;28;20408;-76
2021/12/12 08:00:07;;;;;;;1.40;0.87;;;;;;;;;;5032654;28;20459;-76
2021/12/12 08:02:33;;;;;;;1.80;0.90;;;;;;;;;;5050773;28;20450;-76
2021/12/12 08:04:59;;;;;;;1.60;1.10;;;;;;;;;;5050536;28;20451;-76
2021/12/12 08:07:27;;;;;;;1.20;0.90;;;;;;;;;;5050743;28;20407;-77
2021/12/12 08:09:53;;;;;;;5.80;1.10;;;;;;;;;;5050387;28;20439;-76
2021/12/12 08:12:23;;;;;;;1.70;0.97;;;;;;;;;;5050754;28;20407;-76
2021/12/12 08:14:49;;;;;;;1.73;1.10;;;;;;;;;;5050609;28;20417;-76
2021/12/12 08:17:16;;;;;;;1.40;0.80;;;;;;;;;;5033242;28;20822;-76
2021/12/12 08:19:42;;;;;;;1.30;0.80;;;;;;;;;;5045067;28;20460;-76
2021/12/12 08:22:11;;;;;;;1.60;0.83;;;;;;;;;;5044196;28;20419;-75
2021/12/12 08:24:38;;;;;;;1.50;0.97;;;;;;;;;;5051300;28;20462;-76
2021/12/12 08:27:05;;;;;;;3.70;0.90;;;;;;;;;;5050168;28;20418;-76
2021/12/12 08:29:32;;;;;;;1.13;0.80;;;;;;;;;;5050173;28;20415;-76
2021/12/12 08:31:59;;;;;;;1.50;0.97;;;;;;;;;;5050397;28;20418;-76
2021/12/12 08:34:26;;;;;;;1.57;0.70;;;;;;;;;;5050116;28;20439;-75
2021/12/12 08:36:53;;;;;;;1.17;0.80;;;;;;;;;;5050284;28;20438;-76
2021/12/12 08:39:20;;;;;;;1.77;1.10;;;;;;;;;;5053899;28;20465;-78
2021/12/12 08:41:49;;;;;;;1.47;0.83;;;;;;;;;;5070607;28;20476;-76
2021/12/12 08:44:15;;;;;;;1.30;0.80;;;;;;;;;;5069965;28;20472;-76
2021/12/12 08:46:43;;;;;;;1.50;0.90;;;;;;;;;;5050596;28;20423;-78
2021/12/12 08:49:11;;;;;;;1.80;1.17;;;;;;;;;;5050490;28;20452;-79
2021/12/12 08:51:39;;;;;;;5.63;0.90;;;;;;;;;;5053405;28;20770;-79
2021/12/12 08:54:13;;;;;;;1.40;0.80;;;;;;;;;;5053246;28;20426;-79
2021/12/12 08:56:43;;;;;;;2.70;1.00;;;;;;;;;;5048410;28;20441;-81
2021/12/12 08:59:10;;;;;;;1.30;0.80;;;;;;;;;;5020624;28;20452;-81
2021/12/12 09:01:38;;;;;;;5.83;1.33;;;;;;;;;;5027131;28;20427;-81
2021/12/12 09:04:04;;;;;;;1.70;0.90;;;;;;;;;;5058367;28;20407;-79
2021/12/12 09:06:34;;;;;;;1.80;1.07;;;;;;;;;;5057187;28;20458;-80
2021/12/12 09:09:13;;;;;;;3.93;1.07;;;;;;;;;;5054716;28;20420;-81
2021/12/12 09:11:49;;;;;;;1.60;0.73;;;;;;;;;;5027828;28;20431;-82
2021/12/12 09:14:18;;;;;;;1.20;0.80;;;;;;;;;;5017117;28;20428;-80
2021/12/12 09:16:50;;;;;;;4.03;0.90;;;;;;;;;;5052559;28;20942;-80
2021/12/12 09:19:21;;;;;;;1.10;0.80;;;;;;;;;;5054101;28;20542;-80
2021/12/12 09:21:53;;;;;;;1.33;0.87;;;;;;;;;;5037510;28;20411;-80
2021/12/12 09:24:24;;;;;;;1.70;1.10;;;;;;;;;;5052711;28;20561;-80
2021/12/12 09:26:52;;;;;;;1.53;0.90;;;;;;;;;;5052606;28;20440;-81
2021/12/12 09:29:23;;;;;;;1.87;1.20;;;;;;;;;;5054461;28;20427;-80
2021/12/12 09:31:52;;;;;;;2.20;0.80;;;;;;;;;;5055758;28;20477;-80
2021/12/12 09:34:26;;;;;;;1.30;0.90;;;;;;;;;;5025416;28;20455;-80
2021/12/12 09:36:54;;;;;;;2.00;0.97;;;;;;;;;;5044306;28;20447;-80
2021/12/12 09:39:25;;;;;;;3.83;1.40;;;;;;;;;;5036836;28;20463;-80
2021/12/12 09:42:10;;;;;;;1.43;0.73;;;;;;;;;;5043686;28;20424;-79
2021/12/12 09:45:14;;;;;;;5.53;0.70;;;;;;;;;;5042096;28;20440;-80
2021/12/12 09:48:03;;;;;;;1.40;0.80;;;;;;;;;;4974533;28;20442;-81
2021/12/12 09:53:53;;;;;;;3.40;0.90;;;;;;;;;;5044246;28;20972;-80
2021/12/12 09:56:19;;;;;;;2.17;0.90;;;;;;;;;;5048482;28;20527;-79
2021/12/12 09:59:07;;;;;;;2.20;0.80;;;;;;;;;;5044859;28;20906;-81
2021/12/12 10:01:35;;;;;;;1.53;1.10;;;;;;;;;;5045080;28;20431;-83
2021/12/12 10:04:08;;;;;;;1.30;0.80;;;;;;;;;;5034523;28;20423;-80
2021/12/12 10:06:51;;;;;;;1.80;0.90;;;;;;;;;;5043520;28;20467;-79
2021/12/12 10:09:22;;;;;;;1.50;0.90;;;;;;;;;;5035016;28;20429;-79
2021/12/12 10:12:06;;;;;;;5.83;0.97;;;;;;;;;;5052433;28;20942;-79
2021/12/12 10:14:32;;;;;;;1.60;0.83;;;;;;;;;;5043426;28;20445;-79
2021/12/12 10:17:25;;;;;;;2.80;0.80;;;;;;;;;;5051518;28;20492;-79
2021/12/12 10:19:55;;;;;;;1.53;0.90;;;;;;;;;;5034678;28;20459;-79
2021/12/12 10:22:33;;;;;;;1.63;1.03;;;;;;;;;;5048154;28;20455;-78
2021/12/12 10:25:03;;;;;;;2.40;0.97;;;;;;;;;;5051261;28;20471;-79
2021/12/12 10:27:33;;;;;;;1.23;0.90;;;;;;;;;;5045284;28;20908;-79
2021/12/12 10:30:06;;;;;;;1.60;0.90;;;;;;;;;;5049115;28;20911;-79
2021/12/12 10:32:40;;;;;;;1.10;0.77;;;;;;;;;;5052373;28;20837;-79
2021/12/12 10:35:13;;;;;;;1.43;0.90;;;;;;;;;;5019846;28;20479;-79
2021/12/12 10:37:49;;;;;;;1.20;0.80;;;;;;;;;;5032432;28;20920;-77
2021/12/12 10:40:19;;;;;;;1.20;0.70;;;;;;;;;;5041149;28;20465;-77
2021/12/12 10:42:47;;;;;;;1.53;1.00;;;;;;;;;;5052322;28;20404;-77
2021/12/12 10:45:22;;;;;;;1.40;0.90;;;;;;;;;;5052227;28;20507;-78
2021/12/12 10:47:58;;;;;;;1.77;1.30;;;;;;;;;;5040013;28;20501;-78
2021/12/12 10:50:27;;;;;;;1.70;1.03;;;;;;;;;;5046197;28;21229;-78
2021/12/12 10:53:04;;;;;;;1.50;1.00;;;;;;;;;;5042329;28;20997;-77
2021/12/12 10:55:49;;;;;;;1.23;0.80;;;;;;;;;;5051729;28;20538;-77
2021/12/12 10:58:33;;;;;;;2.00;1.00;;;;;;;;;;5051508;28;20764;-76
2021/12/12 11:01:08;;;;;;;1.87;0.93;;;;;;;;;;5051234;28;20974;-76
2021/12/12 11:03:37;;;;;;;1.20;0.80;;;;;;;;;;5050705;28;20915;-79
2021/12/12 11:06:05;;;;;;;1.30;0.90;;;;;;;;;;5037193;28;20459;-78
2021/12/12 11:08:35;;;;;;;1.20;0.80;;;;;;;;;;5044222;28;20443;-77
2021/12/12 11:11:02;;;;;;;1.80;1.10;;;;;;;;;;5046828;28;20424;-78
2021/12/12 11:13:37;;;;;;;1.57;0.70;;;;;;;;;;5031380;28;20432;-78
2021/12/12 11:16:06;;;;;;;4.17;0.90;;;;;;;;;;5035996;28;20525;-77
2021/12/12 11:18:36;;;;;;;1.10;0.70;;;;;;;;;;5049846;28;20470;-77
2021/12/12 11:21:02;;;;;;;1.63;0.90;;;;;;;;;;5050550;28;20811;-78
2021/12/12 11:23:34;;;;;;;3.53;0.90;;;;;;;;;;5051215;28;20408;-81
2021/12/12 11:26:12;;;;;;;1.50;0.70;;;;;;;;;;5034354;28;20436;-80
2021/12/12 11:28:46;;;;;;;2.37;1.00;;;;;;;;;;5034301;28;20771;-79
2021/12/12 11:31:33;;;;;;;1.67;0.80;;;;;;;;;;5051878;28;20431;-79
2021/12/12 11:33:59;;;;;;;1.10;0.70;;;;;;;;;;5034631;28;20419;-79
2021/12/12 11:36:28;;;;;;;1.37;0.77;;;;;;;;;;5035105;28;20439;-79
2021/12/12 11:38:57;;;;;;;1.23;0.90;;;;;;;;;;5051906;28;20419;-79
2021/12/12 11:41:38;;;;;;;1.80;1.03;;;;;;;;;;5033373;28;20455;-79
2021/12/12 11:44:23;;;;;;;1.20;0.73;;;;;;;;;;5051721;28;20399;-79
2021/12/12 11:47:01;;;;;;;2.03;0.93;;;;;;;;;;5051399;28;20404;-77
2021/12/12 11:49:35;;;;;;;1.80;1.10;;;;;;;;;;5050950;28;20435;-78
2021/12/12 11:52:04;;;;;;;1.80;0.97;;;;;;;;;;5033424;28;20415;-78
2021/12/12 11:54:43;;;;;;;1.53;1.00;;;;;;;;;;5051289;28;20467;-78
2021/12/12 11:57:21;;;;;;;1.53;0.90;;;;;;;;;;5051290;28;20419;-78
2021/12/12 12:00:06;;;;;;;2.03;1.00;;;;;;;;;;5051049;28;20466;-78
2021/12/12 12:02:34;;;;;;;1.30;0.80;;;;;;;;;;5051609;28;20457;-80
2021/12/12 12:05:04;;;;;;;1.30;0.90;;;;;;;;;;5053367;28;20884;-79
2021/12/12 12:07:52;;;;;;;2.40;1.20;;;;;;;;;;5051988;28;20890;-80
2021/12/12 12:10:30;;;;;;;1.60;1.10;;;;;;;;;;5051101;28;20418;-77
2021/12/12 12:13:14;;;;;;;2.10;1.30;;;;;;;;;;5021827;28;20495;-77
2021/12/12 12:15:40;;;;;;;1.33;0.93;;;;;;;;;;5050745;28;20458;-77
2021/12/12 12:18:25;;;;;;;2.03;0.90;;;;;;;;;;5046055;28;20420;-77
2021/12/12 12:21:14;;;;;;;1.20;0.90;;;;;;;;;;5032509;28;20458;-77
2021/12/12 12:24:00;;;;;;;1.30;0.87;;;;;;;;;;5031484;28;21034;-79
2021/12/12 12:29:22;;;;;;;1.47;0.93;;;;;;;;;;5037913;28;20488;-80
2021/12/12 12:32:08;;;;;;;1.43;1.07;;;;;;;;;;5054471;28;20420;-80
2021/12/12 12:34:40;;;;;;;1.53;1.10;;;;;;;;;;5006474;28;20428;-80
2021/12/12 12:37:25;;;;;;;1.73;1.30;;;;;;;;;;5037492;28;20397;-80
2021/12/12 12:40:09;;;;;;;1.57;0.90;;;;;;;;;;5019555;28;20983;-80
2021/12/12 12:43:01;;;;;;;1.20;0.80;;;;;;;;;;5039202;28;20948;-80
2021/12/12 12:45:36;;;;;;;1.33;0.80;;;;;;;;;;5048548;28;20519;-80
2021/12/12 12:48:11;;;;;;;1.60;0.90;;;;;;;;;;5020749;28;20404;-80
2021/12/12 12:50:39;;;;;;;1.40;0.90;;;;;;;;;;5038767;28;20482;-80
2021/12/12 12:53:19;;;;;;;1.63;1.10;;;;;;;;;;5038936;28;20442;-80
2021/12/12 12:56:04;;;;;;;1.60;1.07;;;;;;;;;;5039757;28;20491;-80
2021/12/12 12:58:39;;;;;;;1.23;0.70;;;;;;;;;;5039851;28;20428;-80
2021/12/12 13:01:16;;;;;;;1.40;0.83;;;;;;;;;;5053575;28;20515;-81
2021/12/12 13:03:44;;;;;;;1.20;0.80;;;;;;;;;;5057888;28;20408;-80
2021/12/12 13:06:37;;;;;;;2.10;0.90;;;;;;;;;;5053667;28;20523;-80
2021/12/12 13:09:11;;;;;;;1.10;0.70;;;;;;;;;;5020094;28;20432;-77
2021/12/12 13:11:37;;;;;;;1.20;0.77;;;;;;;;;;5033822;28;20393;-77
2021/12/12 13:14:29;;;;;;;1.20;0.80;;;;;;;;;;5045188;28;20415;-79
2021/12/12 13:16:59;;;;;;;1.50;1.00;;;;;;;;;;5043305;28;20407;-79
2021/12/12 13:19:29;;;;;;;1.27;0.70;;;;;;;;;;5045950;28;20401;-80
2021/12/12 13:22:03;;;;;;;1.53;0.70;;;;;;;;;;5052532;28;20415;-79
2021/12/12 13:24:36;;;;;;;1.10;0.70;;;;;;;;;;5038581;28;20436;-80
2021/12/12 13:27:17;;;;;;;1.33;0.83;;;;;;;;;;5045859;28;20417;-80
2021/12/12 13:30:01;;;;;;;1.30;0.90;;;;;;;;;;5020110;28;20911;-80
2021/12/12 13:32:36;;;;;;;1.70;0.90;;;;;;;;;;5027889;28;20422;-81
2021/12/12 13:35:02;;;;;;;1.40;0.70;;;;;;;;;;5057444;28;20936;-80
2021/12/12 13:37:28;;;;;;;1.33;0.80;;;;;;;;;;5056789;28;20774;-80
2021/12/12 13:39:54;;;;;;;1.00;0.70;;;;;;;;;;5053722;28;20451;-80
2021/12/12 13:42:20;;;;;;;2.00;1.10;;;;;;;;;;5055678;28;20404;-80
2021/12/12 13:45:06;;;;;;;1.40;0.90;;;;;;;;;;5036867;28;20438;-80
2021/12/12 13:47:47;;;;;;;2.37;0.87;;;;;;;;;;5052342;28;20826;-80
2021/12/12 13:50:36;;;;;;;1.20;0.63;;;;;;;;;;5039320;28;20473;-80
2021/12/12 13:53:08;;;;;;;1.80;1.10;;;;;;;;;;5035686;28;20408;-78
2021/12/12 13:55:50;;;;;;;1.10;0.70;;;;;;;;;;5053201;28;20442;-79
2021/12/12 13:58:29;;;;;;;1.30;0.83;;;;;;;;;;5051847;28;20882;-78
2021/12/12 14:01:04;;;;;;;1.33;0.63;;;;;;;;;;5051443;28;20467;-77
2021/12/12 14:03:35;;;;;;;1.30;0.70;;;;;;;;;;5052728;28;20464;-77
2021/12/12 14:06:05;;;;;;;1.70;0.80;;;;;;;;;;5036429;28;20795;-77
2021/12/12 14:08:32;;;;;;;1.77;1.00;;;;;;;;;;5048941;28;20420;-78
2021/12/12 14:11:04;;;;;;;1.40;0.90;;;;;;;;;;5051718;28;20415;-77
2021/12/12 14:13:31;;;;;;;1.20;0.83;;;;;;;;;;5052362;28;20416;-77
2021/12/12 14:16:02;;;;;;;1.90;1.07;;;;;;;;;;5034631;28;20431;-78
2021/12/12 14:18:30;;;;;;;4.50;0.80;;;;;;;;;;5033629;28;20424;-78
2021/12/12 14:20:57;;;;;;;2.70;1.00;;;;;;;;;;5051984;28;20459;-77
2021/12/12 14:23:24;;;;;;;17.20;1.20;;;;;;;;;;5034384;28;20481;-77
2021/12/12 14:25:53;;;;;;;2.17;0.80;;;;;;;;;;5037447;28;20947;-77
2021/12/12 14:28:23;;;;;;;1.43;0.87;;;;;;;;;;5014620;28;20413;-77
2021/12/12 14:30:51;;;;;;;1.37;0.90;;;;;;;;;;5032239;28;20408;-77
2021/12/12 14:33:21;;;;;;;1.40;0.80;;;;;;;;;;5039750;28;20424;-77
2021/12/12 14:35:49;;;;;;;1.20;0.80;;;;;;;;;;5051636;28;20505;-77
2021/12/12 14:38:17;;;;;;;1.30;0.80;;;;;;;;;;5045507;28;20408;-77
2021/12/12 14:40:44;;;;;;;1.60;0.97;;;;;;;;;;5046286;28;20466;-77
2021/12/12 14:43:24;;;;;;;1.53;0.83;;;;;;;;;;5051500;28;20411;-77
2021/12/12 14:46:01;;;;;;;2.87;1.30;;;;;;;;;;5051813;28;20799;-77
2021/12/12 14:48:29;;;;;;;2.13;1.07;;;;;;;;;;5042841;28;20847;-77
2021/12/12 14:51:00;;;;;;;1.50;1.20;;;;;;;;;;5049888;28;20447;-77
2021/12/12 14:53:33;;;;;;;1.60;0.90;;;;;;;;;;5052230;28;20407;-77
2021/12/12 14:56:09;;;;;;;1.30;0.80;;;;;;;;;;5051531;28;20538;-77
2021/12/12 14:59:01;;;;;;;1.47;0.80;;;;;;;;;;5051564;28;20411;-77
2021/12/12 15:01:32;;;;;;;3.03;1.20;;;;;;;;;;5028198;28;20882;-77
2021/12/12 15:04:01;;;;;;;1.40;0.80;;;;;;;;;;5051967;28;20420;-77
2021/12/12 15:06:32;;;;;;;7.03;1.03;;;;;;;;;;5051209;28;21022;-77
2021/12/12 15:09:01;;;;;;;1.83;1.10;;;;;;;;;;5013443;28;20421;-77
2021/12/12 15:11:35;;;;;;;2.77;1.20;;;;;;;;;;5031444;28;20412;-76
2021/12/12 15:14:02;;;;;;;1.20;0.60;;;;;;;;;;5013944;28;20432;-77
2021/12/12 15:16:33;;;;;;;1.17;0.77;;;;;;;;;;5049036;28;20478;-77
2021/12/12 15:19:07;;;;;;;1.60;0.80;;;;;;;;;;5050429;28;20419;-77
2021/12/12 15:21:34;;;;;;;2.37;0.90;;;;;;;;;;5050673;28;20455;-77
2021/12/12 15:24:02;;;;;;;1.23;0.90;;;;;;;;;;5051907;28;20498;-78
2021/12/12 15:26:32;;;;;;;1.37;0.87;;;;;;;;;;5047225;28;20442;-77